Time;durP1;ratioP1;P1;durP2;ratioP2;P2;SDS_P1;SDS_P2;PMS_P1;PMS_P2;Temp;Humidity;BMP_temperature;BMP_pressure;BME280_temperature;BME280_humidity;BME280_pressure;Samples;Min_cycle;Max_cycle;Signal;HPM_P1;HPM_P2
2023/09/20 00:01:59;;;;;;;2.23;2.03;;;;;;;18.39;64.71;100654.16;4899094;29;20212;-70
2023/09/20 00:04:26;;;;;;;2.30;2.20;;;;;;;18.36;64.97;100651.88;4898778;29;20283;-71
2023/09/20 00:06:53;;;;;;;2.37;2.27;;;;;;;18.32;65.21;100653.31;4899083;29;20192;-71
2023/09/20 00:09:20;;;;;;;5.63;2.00;;;;;;;18.39;64.86;100648.75;4898807;29;20200;-71
2023/09/20 00:11:46;;;;;;;4.23;2.00;;;;;;;18.37;64.63;100644.59;4899227;29;20272;-71
2023/09/20 00:14:13;;;;;;;2.20;2.10;;;;;;;18.35;65.31;100641.25;4898942;29;20220;-71
2023/09/20 00:16:40;;;;;;;5.10;2.40;;;;;;;18.32;65.61;100650.63;4898688;29;20239;-71
2023/09/20 00:19:06;;;;;;;3.97;2.30;;;;;;;18.41;65.33;100646.69;4898615;29;20240;-71
2023/09/20 00:21:35;;;;;;;2.40;2.30;;;;;;;18.44;65.31;100656.25;4898422;29;20216;-71
2023/09/20 00:24:04;;;;;;;2.97;2.17;;;;;;;18.42;65.32;100661.88;4898538;29;20742;-71
2023/09/20 00:26:33;;;;;;;7.57;2.30;;;;;;;18.35;65.45;100652.06;4898487;29;20192;-71
2023/09/20 00:29:06;;;;;;;6.67;2.00;;;;;;;18.26;65.22;100651.41;4898452;29;20669;-71
2023/09/20 00:31:34;;;;;;;7.47;2.30;;;;;;;18.33;65.88;100659.56;4898258;29;20212;-71
2023/09/20 00:34:03;;;;;;;3.70;2.00;;;;;;;18.39;65.33;100658.75;4898400;29;20205;-71
2023/09/20 00:36:30;;;;;;;2.63;2.43;;;;;;;18.33;66.14;100659.56;4897125;29;20212;-71
2023/09/20 00:38:58;;;;;;;2.43;2.23;;;;;;;18.35;65.67;100662.91;4898588;29;20569;-71
2023/09/20 00:41:25;;;;;;;2.50;2.40;;;;;;;18.31;66.05;100656.22;4898186;29;20227;-71
2023/09/20 00:43:52;;;;;;;8.13;2.67;;;;;;;18.30;65.98;100655.38;4898176;29;20248;-71
2023/09/20 00:46:21;;;;;;;2.63;2.07;;;;;;;18.37;65.71;100663.53;4898243;29;20219;-71
2023/09/20 00:48:51;;;;;;;1.87;1.87;;;;;;;18.24;66.24;100656.22;4898520;29;20192;-71
2023/09/20 00:51:21;;;;;;;4.07;2.30;;;;;;;18.22;66.35;100664.53;4896954;29;20280;-71
2023/09/20 00:53:52;;;;;;;4.00;2.23;;;;;;;18.15;66.22;100658.28;4898800;29;20199;-71
2023/09/20 00:56:19;;;;;;;1.97;1.80;;;;;;;18.24;66.36;100659.75;4898205;29;20236;-71
2023/09/20 00:58:45;;;;;;;4.87;2.33;;;;;;;18.21;66.82;100665.56;4896882;29;20192;-71
2023/09/20 01:01:12;;;;;;;2.10;2.00;;;;;;;18.26;66.55;100657.66;4898153;29;20208;-71
2023/09/20 01:03:40;;;;;;;2.17;2.07;;;;;;;18.18;66.73;100660.56;4898096;29;20267;-71
2023/09/20 01:06:09;;;;;;;3.77;2.23;;;;;;;18.20;67.05;100655.75;4898880;29;20652;-71
2023/09/20 01:08:35;;;;;;;1.87;1.77;;;;;;;18.28;66.37;100654.78;4898608;29;20196;-71
2023/09/20 01:11:02;;;;;;;3.50;2.50;;;;;;;18.23;66.73;100654.53;4896724;29;20311;-71
2023/09/20 01:13:29;;;;;;;4.40;2.37;;;;;;;18.26;66.62;100659.53;4898264;29;20192;-71
2023/09/20 01:15:56;;;;;;;3.37;2.13;;;;;;;18.23;66.69;100649.97;4898021;29;20192;-71
2023/09/20 01:18:22;;;;;;;2.43;2.33;;;;;;;18.21;66.89;100651.19;4897998;29;20240;-71
2023/09/20 01:20:48;;;;;;;2.27;2.13;;;;;;;18.18;67.35;100654.31;4896603;29;20593;-70
2023/09/20 01:23:15;;;;;;;2.70;2.50;;;;;;;18.24;67.11;100654.34;4898193;29;20598;-70
2023/09/20 01:25:43;;;;;;;2.33;2.23;;;;;;;18.23;67.45;100660.78;4896723;29;20287;-71
2023/09/20 01:28:10;;;;;;;4.80;2.70;;;;;;;18.17;67.97;100655.34;4897937;29;20217;-70
2023/09/20 01:30:39;;;;;;;2.83;2.03;;;;;;;18.15;67.74;100658.28;4896598;29;20216;-70
2023/09/20 01:33:07;;;;;;;6.60;2.10;;;;;;;18.14;67.81;100653.06;4896637;29;20196;-70
2023/09/20 01:35:36;;;;;;;5.03;2.37;;;;;;;18.17;67.65;100653.47;4898410;29;20237;-71
2023/09/20 01:38:07;;;;;;;2.27;2.07;;;;;;;18.16;67.53;100653.69;4896562;29;20193;-71
2023/09/20 01:40:35;;;;;;;3.07;2.23;;;;;;;18.20;67.78;100653.06;4898032;29;20585;-70
2023/09/20 01:43:06;;;;;;;2.70;2.50;;;;;;;18.13;67.73;100660.31;4896752;29;20299;-71
2023/09/20 01:45:36;;;;;;;2.67;2.50;;;;;;;18.16;68.00;100662.63;4900145;29;20188;-71
2023/09/20 01:48:10;;;;;;;1.97;1.87;;;;;;;18.15;67.63;100662.84;4901931;29;20537;-71
2023/09/20 01:50:37;;;;;;;4.93;2.20;;;;;;;18.07;68.52;100657.59;4901603;29;20220;-70
2023/09/20 01:53:05;;;;;;;7.67;2.37;;;;;;;18.09;68.32;100650.94;4900036;29;20177;-70
2023/09/20 01:55:32;;;;;;;2.53;2.37;;;;;;;18.12;68.15;100647.81;4900006;29;20541;-70
2023/09/20 01:57:59;;;;;;;2.03;2.03;;;;;;;18.05;68.57;100655.09;4899975;29;20200;-70
2023/09/20 02:00:36;;;;;;;3.73;2.60;;;;;;;17.99;68.84;100646.97;4899828;29;20656;-70
2023/09/20 02:03:06;;;;;;;3.20;2.27;;;;;;;17.99;68.72;100645.06;4901376;29;20577;-71
2023/09/20 02:05:33;;;;;;;4.40;3.03;;;;;;;17.95;69.17;100635.69;4899806;29;20196;-71
2023/09/20 02:08:00;;;;;;;2.93;2.53;;;;;;;17.90;69.13;100640.06;4900960;29;20217;-71
2023/09/20 02:10:27;;;;;;;2.40;2.10;;;;;;;17.92;69.09;100638.81;4899643;29;20255;-70
2023/09/20 02:12:55;;;;;;;2.70;2.10;;;;;;;17.84;69.30;100628.16;4899671;29;20195;-70
2023/09/20 02:15:24;;;;;;;3.33;2.00;;;;;;;17.76;69.75;100631.03;4899619;29;20197;-71
2023/09/20 02:17:51;;;;;;;3.53;2.40;;;;;;;17.65;70.08;100632.41;4900820;29;20268;-71
2023/09/20 02:20:20;;;;;;;1.70;1.70;;;;;;;17.63;70.32;100629.09;4901261;29;20291;-70
2023/09/20 02:22:48;;;;;;;2.57;2.37;;;;;;;17.71;70.16;100631.63;4900938;29;20208;-70
2023/09/20 02:25:20;;;;;;;7.40;2.50;;;;;;;17.81;69.58;100631.28;4900682;29;20225;-70
2023/09/20 02:27:48;;;;;;;5.00;2.10;;;;;;;17.66;70.31;100622.44;4900929;29;20199;-70
2023/09/20 02:30:19;;;;;;;2.27;2.17;;;;;;;17.59;70.68;100624.28;4899328;29;20218;-70
2023/09/20 02:32:52;;;;;;;7.27;2.60;;;;;;;17.52;71.06;100623.41;4900834;29;20188;-71
2023/09/20 02:35:20;;;;;;;4.93;2.40;;;;;;;17.52;71.00;100623.41;4899331;29;20203;-71
2023/09/20 02:37:48;;;;;;;2.30;2.00;;;;;;;17.50;71.03;100631.69;4900442;29;20220;-71
2023/09/20 02:40:15;;;;;;;2.60;2.40;;;;;;;17.46;71.21;100619.59;4900635;29;20208;-70
2023/09/20 02:42:44;;;;;;;5.27;2.00;;;;;;;17.46;71.30;100618.78;4900218;29;20216;-71
2023/09/20 02:45:17;;;;;;;3.90;2.43;;;;;;;17.39;71.71;100624.16;4883591;29;20295;-71
2023/09/20 02:47:46;;;;;;;3.33;2.57;;;;;;;17.34;71.63;100622.03;4899098;29;20196;-71
2023/09/20 02:50:16;;;;;;;2.40;2.20;;;;;;;17.31;71.70;100621.59;4900148;29;20212;-70
2023/09/20 02:52:45;;;;;;;2.10;2.10;;;;;;;17.28;71.92;100617.41;4899032;29;20192;-70
2023/09/20 02:55:13;;;;;;;2.93;2.73;;;;;;;17.32;71.69;100612.44;4899259;29;20193;-70
2023/09/20 02:57:40;;;;;;;2.40;2.10;;;;;;;17.20;72.10;100604.06;4900365;29;20195;-70
2023/09/20 03:00:21;;;;;;;5.87;2.33;;;;;;;17.22;71.97;100611.97;4898768;29;20224;-70
2023/09/20 03:02:50;;;;;;;2.10;2.10;;;;;;;17.20;72.40;100608.63;4898771;29;20209;-70
2023/09/20 03:05:21;;;;;;;6.10;2.10;;;;;;;17.33;72.25;100608.72;4900209;29;20224;-70
2023/09/20 03:07:49;;;;;;;2.47;2.40;;;;;;;17.23;72.28;100600.13;4898994;29;20215;-70
2023/09/20 03:10:21;;;;;;;5.60;2.37;;;;;;;17.19;72.59;100594.28;4898539;29;20231;-70
2023/09/20 03:12:53;;;;;;;2.40;2.30;;;;;;;17.16;72.81;100581.19;4898931;29;20228;-70
2023/09/20 03:15:21;;;;;;;6.27;2.67;;;;;;;17.08;73.07;100592.13;4900368;29;20185;-70
2023/09/20 03:17:52;;;;;;;1.93;1.83;;;;;;;17.12;72.83;100577.19;4899768;29;20189;-70
2023/09/20 03:20:23;;;;;;;2.20;2.07;;;;;;;17.07;73.05;100576.94;4898821;29;20217;-71
2023/09/20 03:22:58;;;;;;;1.80;1.80;;;;;;;17.08;73.28;100581.31;4898386;29;20307;-71
2023/09/20 03:25:28;;;;;;;5.33;2.83;;;;;;;17.09;73.15;100571.38;4898650;29;20573;-71
2023/09/20 03:27:56;;;;;;;3.97;2.30;;;;;;;17.06;73.26;100572.56;4898325;29;20216;-71
2023/09/20 03:30:22;;;;;;;6.43;2.20;;;;;;;17.00;73.14;100567.97;4899727;29;20283;-70
2023/09/20 03:32:50;;;;;;;2.10;2.10;;;;;;;16.98;73.41;100567.31;4898203;29;20213;-70
2023/09/20 03:35:19;;;;;;;4.10;2.70;;;;;;;17.01;73.30;100566.13;4899686;29;20197;-70
2023/09/20 03:37:46;;;;;;;2.10;2.00;;;;;;;17.00;73.63;100567.97;4899909;29;20196;-70
2023/09/20 03:40:19;;;;;;;3.40;2.53;;;;;;;16.97;73.58;100562.97;4898051;29;20631;-70
2023/09/20 03:42:54;;;;;;;3.43;3.03;;;;;;;16.98;73.64;100561.94;4897984;29;20288;-70
2023/09/20 03:45:20;;;;;;;1.67;1.67;;;;;;;16.98;73.69;100559.22;4899643;29;20237;-70
2023/09/20 03:47:53;;;;;;;2.23;2.13;;;;;;;17.01;73.71;100563.41;4898019;29;20609;-70
2023/09/20 03:50:22;;;;;;;2.47;2.47;;;;;;;17.00;73.67;100548.22;4897885;29;20228;-70
2023/09/20 03:52:49;;;;;;;2.67;2.57;;;;;;;16.99;73.95;100558.19;4897932;29;20196;-70
2023/09/20 03:55:17;;;;;;;5.43;2.30;;;;;;;16.95;74.19;100556.09;4898094;29;20713;-70
2023/09/20 03:57:45;;;;;;;5.13;2.47;;;;;;;16.98;74.06;100548.41;4898613;29;20197;-70
2023/09/20 04:00:14;;;;;;;10.03;2.57;;;;;;;16.93;74.08;100547.38;4897589;29;20661;-70
2023/09/20 04:02:43;;;;;;;2.30;1.90;;;;;;;16.96;74.08;100549.66;4897636;29;20306;-70
2023/09/20 04:05:16;;;;;;;4.80;2.50;;;;;;;16.94;74.29;100540.91;4899178;29;20169;-70
2023/09/20 04:07:56;;;;;;;3.10;2.40;;;;;;;16.93;74.15;100537.38;4897309;29;20192;-70
2023/09/20 04:10:22;;;;;;;5.07;2.67;;;;;;;16.89;74.81;100533.41;4897468;29;20220;-70
2023/09/20 04:12:49;;;;;;;2.07;2.00;;;;;;;16.87;74.43;100530.91;4897518;29;20200;-70
2023/09/20 04:15:17;;;;;;;3.40;2.43;;;;;;;16.88;74.32;100534.44;4898948;29;20667;-70
2023/09/20 04:17:43;;;;;;;2.40;2.23;;;;;;;16.90;74.37;100527.81;4897410;29;20208;-70
2023/09/20 04:20:11;;;;;;;4.07;2.20;;;;;;;16.89;74.49;100536.94;4898843;29;20260;-70
2023/09/20 04:22:38;;;;;;;9.10;2.77;;;;;;;16.90;74.37;100525.09;4897791;29;20261;-70
2023/09/20 04:25:05;;;;;;;6.80;2.80;;;;;;;16.88;74.45;100532.59;4898578;29;20192;-70
2023/09/20 04:27:34;;;;;;;2.70;2.60;;;;;;;16.94;74.18;100530.94;4897291;29;20200;-70
2023/09/20 04:30:01;;;;;;;3.97;2.57;;;;;;;16.90;74.59;100527.81;4897210;29;20293;-70
2023/09/20 04:32:30;;;;;;;3.40;2.33;;;;;;;16.90;74.55;100521.56;4897842;29;20288;-70
2023/09/20 04:34:57;;;;;;;2.30;2.30;;;;;;;16.87;74.72;100519.28;4897229;29;20201;-70
2023/09/20 04:37:25;;;;;;;8.60;2.60;;;;;;;16.87;74.78;100516.56;4897190;29;20201;-70
2023/09/20 04:39:52;;;;;;;2.73;2.53;;;;;;;16.91;74.55;100515.16;4897009;29;20208;-70
2023/09/20 04:42:19;;;;;;;4.80;2.47;;;;;;;16.86;75.06;100513.03;4898436;29;20212;-70
2023/09/20 04:44:49;;;;;;;5.70;2.43;;;;;;;16.86;75.23;100512.19;4897377;29;20688;-70
2023/09/20 04:47:17;;;;;;;3.50;1.80;;;;;;;16.86;74.89;100520.28;4896992;29;20720;-70
2023/09/20 04:49:46;;;;;;;3.07;2.77;;;;;;;16.83;74.83;100518.84;4897156;29;20204;-70
2023/09/20 04:52:15;;;;;;;2.53;2.53;;;;;;;16.82;75.01;100524.41;4897016;29;20227;-71
2023/09/20 04:54:43;;;;;;;2.53;2.47;;;;;;;16.82;75.12;100524.41;4896931;29;20216;-71
2023/09/20 04:57:12;;;;;;;2.40;2.30;;;;;;;16.79;75.17;100522.97;4896942;29;20580;-71
2023/09/20 04:59:42;;;;;;;2.30;2.20;;;;;;;16.79;75.09;100531.06;4896821;29;20707;-70
2023/09/20 05:02:10;;;;;;;2.77;2.67;;;;;;;16.79;75.00;100532.94;4898185;29;20249;-71
2023/09/20 05:04:38;;;;;;;8.23;2.93;;;;;;;16.85;75.24;100530.25;4896815;29;20677;-71
2023/09/20 05:07:05;;;;;;;3.67;2.50;;;;;;;16.81;74.85;100533.53;4896824;29;20193;-71
2023/09/20 05:09:34;;;;;;;4.10;2.33;;;;;;;16.77;75.42;100532.28;4881778;29;20196;-71
2023/09/20 05:12:02;;;;;;;5.67;2.33;;;;;;;16.78;75.44;100534.78;4896792;29;20199;-71
2023/09/20 05:14:29;;;;;;;8.00;2.60;;;;;;;16.80;75.54;100537.31;4896764;29;20231;-71
2023/09/20 05:16:56;;;;;;;2.60;2.40;;;;;;;16.77;75.70;100537.69;4896769;29;20295;-71
2023/09/20 05:19:23;;;;;;;3.63;2.27;;;;;;;16.71;75.96;100542.00;4899770;29;20248;-71
2023/09/20 05:21:50;;;;;;;2.90;2.40;;;;;;;16.73;75.86;100537.22;4900450;29;20244;-71
2023/09/20 05:24:17;;;;;;;5.53;2.67;;;;;;;16.72;75.81;100538.25;4900509;29;20683;-71
2023/09/20 05:26:43;;;;;;;5.33;2.40;;;;;;;16.75;75.95;100542.44;4902218;29;20676;-71
2023/09/20 05:29:10;;;;;;;3.17;2.50;;;;;;;16.77;76.33;100548.47;4900435;29;20292;-71
2023/09/20 05:31:37;;;;;;;2.57;2.40;;;;;;;16.76;75.60;100536.03;4901656;29;20292;-71
2023/09/20 05:34:05;;;;;;;6.43;2.37;;;;;;;16.75;76.13;100526.25;4901552;29;20223;-71
2023/09/20 05:36:32;;;;;;;2.93;2.73;;;;;;;16.79;76.00;100536.47;4901580;29;20236;-71
2023/09/20 05:38:58;;;;;;;3.07;2.10;;;;;;;16.81;76.03;100520.03;4901469;29;20248;-71
2023/09/20 05:41:26;;;;;;;4.20;2.57;;;;;;;16.82;75.88;100525.25;4901676;29;20224;-71
2023/09/20 05:43:53;;;;;;;2.77;2.30;;;;;;;16.90;75.56;100525.09;4901260;29;20216;-71
2023/09/20 05:46:20;;;;;;;7.77;2.80;;;;;;;16.89;75.78;100518.03;4901845;29;20189;-71
2023/09/20 05:48:46;;;;;;;10.03;3.40;;;;;;;16.89;75.78;100519.91;4901321;29;20215;-71
2023/09/20 05:51:15;;;;;;;3.97;2.10;;;;;;;16.90;75.99;100522.41;4900705;29;20312;-71
2023/09/20 05:53:44;;;;;;;2.47;2.30;;;;;;;16.93;75.69;100521.16;4901488;29;20184;-71
2023/09/20 05:56:11;;;;;;;4.20;2.47;;;;;;;16.97;75.62;100521.63;4901151;29;20203;-72
2023/09/20 05:58:40;;;;;;;5.23;3.93;;;;;;;16.96;75.61;100530.75;4901365;29;20196;-72
2023/09/20 06:01:09;;;;;;;4.30;2.60;;;;;;;17.00;75.33;100526.63;4901299;29;20232;-71
2023/09/20 06:03:36;;;;;;;2.10;2.10;;;;;;;16.98;75.39;100518.72;4900958;29;20212;-71
2023/09/20 06:06:07;;;;;;;4.40;2.23;;;;;;;16.99;75.66;100517.69;4901018;29;20200;-71
2023/09/20 06:08:35;;;;;;;2.60;2.40;;;;;;;16.99;75.47;100525.78;4901005;29;20687;-71
2023/09/20 06:11:04;;;;;;;3.83;2.53;;;;;;;17.03;75.16;100510.84;4900885;29;20295;-71
2023/09/20 06:13:34;;;;;;;2.77;2.53;;;;;;;17.01;75.41;100515.63;4900918;29;20216;-71
2023/09/20 06:16:06;;;;;;;3.40;1.83;;;;;;;17.04;75.50;100517.09;4901385;29;20185;-71
2023/09/20 06:18:32;;;;;;;2.27;2.17;;;;;;;17.02;75.54;100511.88;4900802;29;20279;-71
2023/09/20 06:21:00;;;;;;;3.20;2.50;;;;;;;17.05;75.52;100521.47;4901151;29;20268;-71
2023/09/20 06:23:29;;;;;;;3.23;3.00;;;;;;;17.09;75.48;100512.78;4900894;29;20208;-71
2023/09/20 06:26:03;;;;;;;5.67;2.67;;;;;;;17.11;75.59;100520.66;4901002;29;20589;-71
2023/09/20 06:28:31;;;;;;;2.50;2.40;;;;;;;17.14;75.51;100514.88;4900626;29;20655;-71
2023/09/20 06:30:58;;;;;;;3.23;2.77;;;;;;;17.22;75.46;100514.72;4899349;29;20224;-71
2023/09/20 06:33:24;;;;;;;3.73;2.17;;;;;;;17.30;75.20;100514.53;4900952;29;20256;-71
2023/09/20 06:35:53;;;;;;;4.87;2.87;;;;;;;17.36;75.27;100514.56;4900775;29;20617;-71
2023/09/20 06:38:19;;;;;;;2.77;2.67;;;;;;;17.42;74.59;100514.81;4900994;29;20208;-71
2023/09/20 06:40:53;;;;;;;2.83;2.20;;;;;;;17.44;74.81;100520.84;4900956;29;20212;-71
2023/09/20 06:43:20;;;;;;;5.07;2.40;;;;;;;17.51;74.83;100519.84;4900341;29;20224;-71
2023/09/20 06:45:50;;;;;;;3.33;2.73;;;;;;;17.59;74.90;100527.81;4900566;29;20562;-71
2023/09/20 06:48:22;;;;;;;2.87;2.67;;;;;;;17.69;73.91;100520.16;4900599;29;20185;-71
2023/09/20 06:50:53;;;;;;;2.73;2.63;;;;;;;17.70;73.70;100529.06;4900746;29;20220;-71
2023/09/20 06:53:20;;;;;;;2.60;2.50;;;;;;;17.69;73.10;100530.97;4900709;29;20197;-71
2023/09/20 06:55:48;;;;;;;2.50;2.43;;;;;;;17.68;73.77;100521.19;4900383;29;20569;-71
2023/09/20 06:58:14;;;;;;;2.67;2.47;;;;;;;17.74;73.17;100519.53;4900110;29;20188;-71
2023/09/20 07:00:46;;;;;;;3.47;2.27;;;;;;;17.82;72.51;100526.66;4899987;29;20709;-71
2023/09/20 07:03:13;;;;;;;8.70;2.90;;;;;;;17.82;72.99;100532.88;4899931;29;20268;-71
2023/09/20 07:05:40;;;;;;;2.97;2.77;;;;;;;17.85;72.88;100526.22;4900418;29;20197;-71
2023/09/20 07:08:08;;;;;;;2.43;2.23;;;;;;;17.86;73.68;100525.19;4899932;29;20653;-71
2023/09/20 07:10:36;;;;;;;2.27;2.07;;;;;;;18.01;72.02;100525.84;4900041;29;20259;-71
2023/09/20 07:13:05;;;;;;;4.57;2.70;;;;;;;18.02;71.98;100524.81;4900085;29;20196;-71
2023/09/20 07:15:34;;;;;;;3.60;2.60;;;;;;;18.05;71.57;100525.22;4899801;29;20283;-71
2023/09/20 07:18:11;;;;;;;2.90;2.70;;;;;;;18.07;72.81;100531.28;4899730;29;20203;-71
2023/09/20 07:20:42;;;;;;;2.00;2.00;;;;;;;18.10;72.09;100524.63;4899927;29;20704;-71
2023/09/20 07:23:10;;;;;;;2.67;2.57;;;;;;;18.13;72.13;100524.19;4900166;29;20224;-71
2023/09/20 07:25:38;;;;;;;2.77;2.57;;;;;;;18.15;72.38;100522.97;4898556;29;20200;-71
2023/09/20 07:28:06;;;;;;;2.77;2.57;;;;;;;18.15;71.84;100536.50;4899532;29;20665;-71
2023/09/20 07:30:34;;;;;;;2.27;2.27;;;;;;;18.18;72.02;100527.13;4899474;29;20619;-71
2023/09/20 07:33:02;;;;;;;2.37;2.33;;;;;;;18.22;72.38;100531.94;4899754;29;20193;-71
2023/09/20 07:35:39;;;;;;;2.60;2.50;;;;;;;18.36;71.11;100537.34;4899991;29;20618;-71
2023/09/20 07:38:20;;;;;;;2.20;2.07;;;;;;;18.37;71.69;100533.63;4899651;29;20193;-71
2023/09/20 07:40:50;;;;;;;9.83;3.03;;;;;;;18.44;71.47;100534.44;4898685;29;20213;-71
2023/09/20 07:43:18;;;;;;;2.30;2.27;;;;;;;18.52;70.87;100531.53;4899699;29;20220;-71
2023/09/20 07:45:54;;;;;;;3.17;2.53;;;;;;;18.56;69.86;100535.53;4899922;29;20181;-71
2023/09/20 07:48:22;;;;;;;4.13;2.47;;;;;;;18.55;69.39;100525.72;4899701;29;20601;-71
2023/09/20 07:50:50;;;;;;;3.13;2.30;;;;;;;18.58;70.53;100526.16;4899351;29;20208;-71
2023/09/20 07:53:19;;;;;;;2.40;2.30;;;;;;;18.68;70.56;100509.47;4899125;29;20175;-71
2023/09/20 07:56:07;;;;;;;2.40;2.40;;;;;;;18.69;70.25;100513.84;4899365;29;20220;-71
2023/09/20 07:58:36;;;;;;;2.07;2.07;;;;;;;18.84;69.58;100511.75;4899172;29;20251;-71
2023/09/20 08:01:10;;;;;;;5.17;1.87;;;;;;;18.90;68.08;100507.38;4899068;29;20308;-71
2023/09/20 08:03:38;;;;;;;2.33;2.23;;;;;;;18.87;69.06;100508.63;4899113;29;20209;-71
2023/09/20 08:06:09;;;;;;;2.07;2.03;;;;;;;18.90;69.34;100505.50;4899411;29;20224;-71
2023/09/20 08:08:35;;;;;;;1.90;1.80;;;;;;;18.93;69.36;100510.47;4898802;29;20535;-71
2023/09/20 08:11:02;;;;;;;2.80;2.10;;;;;;;19.05;68.01;100513.41;4898696;29;20298;-71
2023/09/20 08:13:39;;;;;;;2.20;2.10;;;;;;;19.04;68.08;100519.84;4899069;29;20183;-71
2023/09/20 08:16:09;;;;;;;3.33;1.93;;;;;;;19.03;68.92;100510.06;4899011;29;20219;-72
2023/09/20 08:21:21;;;;;;;2.03;2.03;;;;;;;19.02;68.57;100522.78;4898926;29;20216;-72
2023/09/20 09:00:21;;;;;;;4.07;1.90;;;;;;;19.38;66.38;100529.56;4898012;29;20248;-71
2023/09/20 09:02:52;;;;;;;6.77;2.17;;;;;;;19.33;66.57;100534.78;4898611;29;20554;-71
2023/09/20 09:05:21;;;;;;;3.53;1.90;;;;;;;19.34;67.01;100540.00;4898616;29;20212;-72
2023/09/20 09:07:48;;;;;;;4.50;2.20;;;;;;;19.33;68.06;100540.22;4898276;29;20228;-71
2023/09/20 09:10:15;;;;;;;5.00;1.63;;;;;;;19.30;67.75;100541.47;4898001;29;20209;-71
2023/09/20 09:12:42;;;;;;;3.03;1.80;;;;;;;19.36;67.82;100546.03;4898116;29;20183;-71
2023/09/20 09:15:10;;;;;;;2.07;1.90;;;;;;;19.33;67.23;100537.50;4897934;29;20200;-71
2023/09/20 09:17:41;;;;;;;2.27;2.10;;;;;;;19.41;66.98;100538.09;4898009;29;20243;-72
2023/09/20 09:20:11;;;;;;;3.27;2.13;;;;;;;19.50;65.94;100539.56;4898163;29;20622;-71
2023/09/20 09:22:38;;;;;;;6.20;2.37;;;;;;;19.45;67.04;100541.25;4897903;29;20240;-71
2023/09/20 09:25:12;;;;;;;2.13;1.80;;;;;;;19.58;66.87;100541.19;4897928;29;20657;-69
2023/09/20 09:27:40;;;;;;;10.03;2.60;;;;;;;19.51;67.43;100543.13;4897941;29;20177;-69
2023/09/20 09:30:12;;;;;;;2.90;2.10;;;;;;;19.54;66.88;100539.97;4898038;29;20628;-69
2023/09/20 09:32:39;;;;;;;2.80;1.93;;;;;;;19.58;67.64;100527.63;4898329;29;20604;-69
2023/09/20 09:35:07;;;;;;;2.70;1.90;;;;;;;19.57;66.58;100524.09;4898081;29;20197;-69
2023/09/20 09:37:34;;;;;;;1.60;1.60;;;;;;;19.48;67.35;100528.09;4897754;29;20200;-69
2023/09/20 09:40:05;;;;;;;1.90;1.50;;;;;;;19.50;67.34;100517.03;4897713;29;20212;-69
2023/09/20 09:42:33;;;;;;;1.63;1.60;;;;;;;19.47;67.48;100517.47;4897824;29;20207;-69
2023/09/20 09:45:01;;;;;;;8.37;1.50;;;;;;;19.41;67.21;100513.69;4897703;29;20201;-68
2023/09/20 09:47:30;;;;;;;5.50;1.97;;;;;;;19.42;66.91;100519.97;4897744;29;20192;-69
2023/09/20 09:50:00;;;;;;;2.50;2.10;;;;;;;19.40;67.33;100527.47;4897926;29;20621;-69
2023/09/20 09:52:28;;;;;;;1.60;1.60;;;;;;;19.39;68.37;100518.50;4897650;29;20200;-69
2023/09/20 09:54:55;;;;;;;5.20;1.83;;;;;;;19.44;68.32;100517.88;4897631;29;20200;-69
2023/09/20 09:57:23;;;;;;;2.03;2.03;;;;;;;19.51;67.92;100521.41;4898157;29;20199;-68
2023/09/20 09:59:51;;;;;;;1.60;1.53;;;;;;;19.50;68.25;100522.47;4898259;29;20196;-69
2023/09/20 10:02:22;;;;;;;8.13;1.60;;;;;;;19.59;67.91;100524.72;4897877;29;20332;-69
2023/09/20 10:04:57;;;;;;;2.17;1.83;;;;;;;19.55;68.07;100517.22;4899424;29;20657;-68
2023/09/20 10:07:31;;;;;;;1.30;1.30;;;;;;;19.65;67.44;100514.88;4901077;29;20177;-68
2023/09/20 10:10:12;;;;;;;1.83;1.83;;;;;;;19.68;68.27;100519.06;4901163;29;20578;-69
2023/09/20 10:12:46;;;;;;;1.50;1.50;;;;;;;19.77;67.48;100506.91;4901224;29;20700;-69
2023/09/20 10:15:14;;;;;;;2.00;1.60;;;;;;;19.75;67.59;100511.69;4901151;29;20180;-69
2023/09/20 10:17:50;;;;;;;4.13;1.60;;;;;;;19.76;67.66;100507.94;4901171;29;20181;-69
2023/09/20 10:20:18;;;;;;;2.73;1.90;;;;;;;19.80;67.15;100515.44;4901042;29;20216;-68
2023/09/20 10:22:48;;;;;;;2.57;1.67;;;;;;;19.78;67.30;100514.81;4900711;29;20228;-69
2023/09/20 10:25:32;;;;;;;2.83;1.83;;;;;;;19.83;68.05;100514.16;4900665;29;20193;-69
2023/09/20 10:28:04;;;;;;;1.50;1.50;;;;;;;19.79;67.88;100512.94;4901165;29;20192;-69
2023/09/20 10:30:34;;;;;;;2.93;1.60;;;;;;;19.87;68.56;100497.22;4900406;29;20219;-69
2023/09/20 10:33:03;;;;;;;1.93;1.80;;;;;;;19.94;68.29;100508.88;4900767;29;20197;-69
2023/09/20 10:35:31;;;;;;;1.20;1.20;;;;;;;20.14;67.38;100505.22;4901060;29;20177;-69
2023/09/20 10:38:20;;;;;;;2.30;1.50;;;;;;;20.31;66.76;100504.50;4900570;29;20661;-69
2023/09/20 10:40:55;;;;;;;1.43;1.43;;;;;;;20.44;67.51;100493.53;4900660;29;20217;-70
2023/09/20 10:43:43;;;;;;;3.90;2.53;;;;;;;20.60;65.09;100497.56;4900427;29;20276;-69
2023/09/20 10:46:17;;;;;;;1.73;1.67;;;;;;;20.62;66.05;100500.91;4900568;29;20200;-70
2023/09/20 10:48:50;;;;;;;1.60;1.60;;;;;;;20.75;65.94;100489.09;4900816;29;20187;-70
2023/09/20 10:51:44;;;;;;;1.87;1.83;;;;;;;20.80;65.51;100486.50;4900683;29;20295;-70
2023/09/20 10:54:20;;;;;;;5.03;1.70;;;;;;;20.88;65.54;100488.94;4900482;29;20268;-70
2023/09/20 10:56:53;;;;;;;1.80;1.70;;;;;;;20.84;65.46;100485.00;4900400;29;20605;-70
2023/09/20 10:59:25;;;;;;;3.40;1.40;;;;;;;20.90;65.68;100484.94;4900426;29;20236;-70
2023/09/20 11:02:01;;;;;;;1.50;1.50;;;;;;;21.04;65.24;100480.22;4900276;29;20217;-70
2023/09/20 11:04:30;;;;;;;1.50;1.40;;;;;;;21.17;65.11;100471.94;4900201;29;20265;-70
2023/09/20 11:06:59;;;;;;;4.50;1.63;;;;;;;21.39;64.93;100470.38;4899892;29;20189;-70
2023/09/20 11:09:38;;;;;;;6.10;1.40;;;;;;;21.45;63.61;100463.22;4899913;29;20200;-70
2023/09/20 11:12:09;;;;;;;1.97;1.90;;;;;;;21.51;63.40;100467.75;4900401;29;20225;-70
2023/09/20 11:14:42;;;;;;;4.30;1.80;;;;;;;21.50;63.06;100463.38;4900099;29;20174;-70
2023/09/20 11:17:13;;;;;;;3.80;2.03;;;;;;;21.41;63.47;100457.41;4898812;29;20630;-70
2023/09/20 11:19:40;;;;;;;7.33;1.97;;;;;;;21.38;64.38;100463.31;4898559;29;20191;-70
2023/09/20 11:22:06;;;;;;;2.20;2.07;;;;;;;21.32;62.85;100452.50;4899697;29;20240;-70
2023/09/20 11:24:41;;;;;;;1.70;1.70;;;;;;;21.30;63.87;100449.19;4899878;29;20692;-70
2023/09/20 11:27:08;;;;;;;2.00;1.97;;;;;;;21.39;64.15;100442.34;4899612;29;20705;-70
2023/09/20 11:29:37;;;;;;;2.57;1.87;;;;;;;21.41;63.09;100443.81;4899543;29;20201;-70
2023/09/20 11:32:10;;;;;;;1.83;1.73;;;;;;;21.55;63.28;100449.91;4899555;29;20196;-70
2023/09/20 11:34:49;;;;;;;1.50;1.50;;;;;;;21.74;62.06;100437.06;4899778;29;20184;-70
2023/09/20 11:37:17;;;;;;;2.03;1.80;;;;;;;21.98;62.93;100441.53;4899455;29;20173;-70
2023/09/20 11:39:50;;;;;;;2.83;1.43;;;;;;;21.97;60.32;100455.41;4899502;29;20220;-70
2023/09/20 11:42:25;;;;;;;1.83;1.53;;;;;;;22.03;57.71;100438.13;4899178;29;20223;-70
2023/09/20 11:45:03;;;;;;;1.10;1.10;;;;;;;21.98;56.18;100440.75;4899418;29;20582;-70
2023/09/20 11:47:51;;;;;;;1.40;1.30;;;;;;;22.03;55.30;100432.69;4899959;29;20189;-70
2023/09/20 11:50:17;;;;;;;1.57;1.47;;;;;;;22.16;55.75;100429.75;4899532;29;20235;-70
2023/09/20 11:52:46;;;;;;;1.83;1.37;;;;;;;22.24;55.36;100435.69;4899141;29;20192;-70
2023/09/20 11:55:13;;;;;;;8.13;1.20;;;;;;;22.22;54.46;100445.16;4899309;29;20184;-70
2023/09/20 11:57:47;;;;;;;1.33;1.33;;;;;;;22.07;55.18;100436.59;4898929;29;20192;-70
2023/09/20 12:00:19;;;;;;;1.75;1.30;;;;;;;22.09;55.64;100434.47;4899446;29;20222;-71
2023/09/20 12:02:46;;;;;;;1.33;1.33;;;;;;;22.03;55.43;100422.63;4899146;29;20245;-70
2023/09/20 12:05:14;;;;;;;1.70;1.60;;;;;;;21.85;54.54;100420.78;4899042;29;20689;-70
2023/09/20 12:07:51;;;;;;;1.20;1.20;;;;;;;21.78;54.82;100427.38;4899299;29;20275;-70
2023/09/20 12:10:18;;;;;;;4.33;1.53;;;;;;;21.75;56.64;100416.97;4899151;29;20223;-70
2023/09/20 12:12:44;;;;;;;10.13;1.50;;;;;;;21.77;56.63;100415.66;4898817;29;20249;-70
2023/09/20 12:15:10;;;;;;;2.67;1.47;;;;;;;21.82;56.25;100420.41;4898644;29;20245;-70